Time;durP1;ratioP1;P1;durP2;ratioP2;P2;SDS_P1;SDS_P2;PMS_P1;PMS_P2;Temp;Humidity;BMP_temperature;BMP_pressure;BME280_temperature;BME280_humidity;BME280_pressure;Samples;Min_cycle;Max_cycle;Signal;HPM_P1;HPM_P2
2023/07/12 00:01:54;;;;;;;;;;;;;;;;;;5325123;28;20338;-75
2023/07/12 00:04:26;;;;;;;;;;;;;;;;;;5325676;28;19904;-75
2023/07/12 00:06:57;;;;;;;;;;;;;;;;;;5325574;28;19910;-75
2023/07/12 00:09:29;;;;;;;;;;;;;;;;;;5324820;28;19904;-75
2023/07/12 00:12:00;;;;;;;;;;;;;;;;;;5325326;28;19908;-75
2023/07/12 00:14:31;;;;;;;;;;;;;;;;;;5325543;28;20346;-74
2023/07/12 00:17:02;;;;;;;;;;;;;;;;;;5324723;28;19915;-75
2023/07/12 00:19:33;;;;;;;;;;;;;;;;;;5325141;28;19948;-75
2023/07/12 00:22:04;;;;;;;;;;;;;;;;;;5325212;28;20323;-75
2023/07/12 00:24:35;;;;;;;;;;;;;;;;;;5324146;28;19904;-75
2023/07/12 00:27:06;;;;;;;;;;;;;;;;;;5325180;28;19912;-75
2023/07/12 00:29:38;;;;;;;;;;;;;;;;;;5325308;28;19994;-75
2023/07/12 00:32:09;;;;;;;;;;;;;;;;;;5323947;28;19915;-75
2023/07/12 00:34:40;;;;;;;;;;;;;;;;;;5324678;28;19904;-75
2023/07/12 00:37:11;;;;;;;;;;;;;;;;;;5324336;28;19958;-75
2023/07/12 00:39:42;;;;;;;;;;;;;;;;;;5324515;28;19911;-75
2023/07/12 00:42:14;;;;;;;;;;;;;;;;;;5325266;28;19935;-75
2023/07/12 00:44:45;;;;;;;;;;;;;;;;;;5323631;28;19911;-75
2023/07/12 00:47:16;;;;;;;;;;;;;;;;;;5325018;28;19904;-75
2023/07/12 00:49:47;;;;;;;;;;;;;;;;;;5324190;28;19918;-75
2023/07/12 00:52:18;;;;;;;;;;;;;;;;;;5324366;28;19907;-75
2023/07/12 00:54:49;;;;;;;;;;;;;;;;;;5324297;28;19961;-75
2023/07/12 00:57:20;;;;;;;;;;;;;;;;;;5324898;28;19918;-75
2023/07/12 00:59:52;;;;;;;;;;;;;;;;;;5323541;28;19912;-75
2023/07/12 01:02:23;;;;;;;;;;;;;;;;;;5325041;28;19914;-75
2023/07/12 01:04:54;;;;;;;;;;;;;;;;;;5324405;28;19910;-75
2023/07/12 01:07:25;;;;;;;;;;;;;;;;;;5323781;28;19904;-74
2023/07/12 01:09:56;;;;;;;;;;;;;;;;;;5324399;28;20002;-75
2023/07/12 01:12:27;;;;;;;;;;;;;;;;;;5323461;28;19911;-75
2023/07/12 01:14:58;;;;;;;;;;;;;;;;;;5324450;28;19912;-75
2023/07/12 01:17:30;;;;;;;;;;;;;;;;;;5324291;28;19911;-75
2023/07/12 01:20:01;;;;;;;;;;;;;;;;;;5323404;28;20358;-75
2023/07/12 01:22:32;;;;;;;;;;;;;;;;;;5324355;28;19914;-75
2023/07/12 01:25:04;;;;;;;;;;;;;;;;;;5324208;28;19912;-75
2023/07/12 01:27:35;;;;;;;;;;;;;;;;;;5323624;28;20261;-75
2023/07/12 01:30:06;;;;;;;;;;;;;;;;;;5324448;28;19904;-75
2023/07/12 01:32:37;;;;;;;;;;;;;;;;;;5324111;28;20382;-74
2023/07/12 01:35:08;;;;;;;;;;;;;;;;;;5323156;28;19908;-74
2023/07/12 01:37:39;;;;;;;;;;;;;;;;;;5323911;28;20278;-75
2023/07/12 01:40:10;;;;;;;;;;;;;;;;;;5323761;28;19903;-75
2023/07/12 01:42:42;;;;;;;;;;;;;;;;;;5323868;28;19914;-75
2023/07/12 01:45:13;;;;;;;;;;;;;;;;;;5324590;28;20404;-74
2023/07/12 01:47:44;;;;;;;;;;;;;;;;;;5322881;28;19957;-74
2023/07/12 01:50:15;;;;;;;;;;;;;;;;;;5324292;28;19969;-74
2023/07/12 01:52:46;;;;;;;;;;;;;;;;;;5326513;28;19994;-75
2023/07/12 01:55:17;;;;;;;;;;;;;;;;;;5327759;28;19908;-74
2023/07/12 01:57:48;;;;;;;;;;;;;;;;;;5327867;28;20048;-75
2023/07/12 02:00:20;;;;;;;;;;;;;;;;;;5328569;28;19927;-75
2023/07/12 02:02:51;;;;;;;;;;;;;;;;;;5327056;28;19904;-74
2023/07/12 02:05:22;;;;;;;;;;;;;;;;;;5328217;28;19915;-74
2023/07/12 02:07:56;;;;;;;;;;;;;;;;;;5327658;28;19972;-75
2023/07/12 02:10:27;;;;;;;;;;;;;;;;;;5327118;28;19911;-75
2023/07/12 02:12:58;;;;;;;;;;;;;;;;;;5327915;28;19908;-75
2023/07/12 02:15:29;;;;;;;;;;;;;;;;;;5327089;28;19912;-76
2023/07/12 02:18:00;;;;;;;;;;;;;;;;;;5327871;28;19931;-73
2023/07/12 02:20:31;;;;;;;;;;;;;;;;;;5327703;28;19915;-73
2023/07/12 02:23:02;;;;;;;;;;;;;;;;;;5326799;28;19904;-73
2023/07/12 02:25:33;;;;;;;;;;;;;;;;;;5327529;28;19919;-72
2023/07/12 02:28:05;;;;;;;;;;;;;;;;;;5327738;28;19910;-73
2023/07/12 02:30:36;;;;;;;;;;;;;;;;;;5326765;28;19949;-73
2023/07/12 02:33:07;;;;;;;;;;;;;;;;;;5327372;28;19912;-73
2023/07/12 02:35:38;;;;;;;;;;;;;;;;;;5327262;28;19912;-74
2023/07/12 02:38:09;;;;;;;;;;;;;;;;;;5326751;28;19908;-74
2023/07/12 02:40:40;;;;;;;;;;;;;;;;;;5327156;28;19949;-74
2023/07/12 02:43:12;;;;;;;;;;;;;;;;;;5327682;28;20393;-73
2023/07/12 02:45:43;;;;;;;;;;;;;;;;;;5326169;28;19910;-73
2023/07/12 02:48:14;;;;;;;;;;;;;;;;;;5327406;28;19904;-73
2023/07/12 02:50:45;;;;;;;;;;;;;;;;;;5326031;28;19903;-73
2023/07/12 02:53:16;;;;;;;;;;;;;;;;;;5327535;28;19903;-73
2023/07/12 02:55:47;;;;;;;;;;;;;;;;;;5326747;28;20377;-73
2023/07/12 02:58:18;;;;;;;;;;;;;;;;;;5326636;28;19903;-74
2023/07/12 03:00:50;;;;;;;;;;;;;;;;;;5326547;28;19903;-74
2023/07/12 03:03:21;;;;;;;;;;;;;;;;;;5327318;28;19973;-73
2023/07/12 03:05:52;;;;;;;;;;;;;;;;;;5325651;28;19908;-74
2023/07/12 03:08:23;;;;;;;;;;;;;;;;;;5326855;28;20012;-74
2023/07/12 03:10:54;;;;;;;;;;;;;;;;;;5326675;28;19904;-74
2023/07/12 03:13:25;;;;;;;;;;;;;;;;;;5326039;28;19911;-74
2023/07/12 03:15:56;;;;;;;;;;;;;;;;;;5326671;28;19923;-74
2023/07/12 03:18:27;;;;;;;;;;;;;;;;;;5326462;28;19910;-74
2023/07/12 03:20:59;;;;;;;;;;;;;;;;;;5325771;28;19948;-74
2023/07/12 03:23:30;;;;;;;;;;;;;;;;;;5326437;28;19904;-75
2023/07/12 03:26:01;;;;;;;;;;;;;;;;;;5325584;28;19904;-74
2023/07/12 03:28:32;;;;;;;;;;;;;;;;;;5326284;28;19907;-74
2023/07/12 03:31:03;;;;;;;;;;;;;;;;;;5326126;28;19935;-74
2023/07/12 03:33:34;;;;;;;;;;;;;;;;;;5325308;28;19908;-74
2023/07/12 03:36:05;;;;;;;;;;;;;;;;;;5325952;28;19934;-74
2023/07/12 03:38:36;;;;;;;;;;;;;;;;;;5325892;28;19918;-74
2023/07/12 03:41:08;;;;;;;;;;;;;;;;;;5325293;28;20196;-74
2023/07/12 03:43:39;;;;;;;;;;;;;;;;;;5325841;28;19947;-74
2023/07/12 03:46:10;;;;;;;;;;;;;;;;;;5325799;28;20002;-74
2023/07/12 03:48:41;;;;;;;;;;;;;;;;;;5324410;28;19998;-75
2023/07/12 03:51:12;;;;;;;;;;;;;;;;;;5326201;28;20409;-75
2023/07/12 03:53:43;;;;;;;;;;;;;;;;;;5325797;28;19987;-75
2023/07/12 03:56:14;;;;;;;;;;;;;;;;;;5325304;28;19912;-75
2023/07/12 03:58:45;;;;;;;;;;;;;;;;;;5325460;28;19904;-75
2023/07/12 04:01:18;;;;;;;;;;;;;;;;;;5324973;28;20346;-75
2023/07/12 04:03:49;;;;;;;;;;;;;;;;;;5325440;28;20304;-75
2023/07/12 04:06:20;;;;;;;;;;;;;;;;;;5325691;28;19904;-74
2023/07/12 04:08:51;;;;;;;;;;;;;;;;;;5324390;28;19917;-74
2023/07/12 04:11:22;;;;;;;;;;;;;;;;;;5325705;28;19911;-75
2023/07/12 04:13:54;;;;;;;;;;;;;;;;;;5324709;28;20312;-74
2023/07/12 04:16:25;;;;;;;;;;;;;;;;;;5324085;28;19912;-74
2023/07/12 04:18:56;;;;;;;;;;;;;;;;;;5325132;28;19911;-74
2023/07/12 04:21:27;;;;;;;;;;;;;;;;;;5325231;28;19904;-74
2023/07/12 04:23:58;;;;;;;;;;;;;;;;;;5324313;28;19926;-74
2023/07/12 04:26:29;;;;;;;;;;;;;;;;;;5325058;28;19904;-74
2023/07/12 04:29:00;;;;;;;;;;;;;;;;;;5324388;28;20338;-74
2023/07/12 04:31:31;;;;;;;;;;;;;;;;;;5324662;28;20104;-75
2023/07/12 04:34:02;;;;;;;;;;;;;;;;;;5324935;28;19907;-75
2023/07/12 04:36:34;;;;;;;;;;;;;;;;;;5323991;28;19915;-75
2023/07/12 04:39:05;;;;;;;;;;;;;;;;;;5324935;28;19954;-75
2023/07/12 04:41:36;;;;;;;;;;;;;;;;;;5325090;28;19903;-75
2023/07/12 04:44:07;;;;;;;;;;;;;;;;;;5324020;28;19911;-75
2023/07/12 04:46:38;;;;;;;;;;;;;;;;;;5324879;28;19997;-74
2023/07/12 04:49:09;;;;;;;;;;;;;;;;;;5324665;28;20003;-74
2023/07/12 04:51:40;;;;;;;;;;;;;;;;;;5323732;28;19904;-74
2023/07/12 04:54:11;;;;;;;;;;;;;;;;;;5325035;28;20364;-74
2023/07/12 04:56:42;;;;;;;;;;;;;;;;;;5324249;28;20018;-73
2023/07/12 04:59:15;;;;;;;;;;;;;;;;;;5323972;28;19954;-73
2023/07/12 05:01:46;;;;;;;;;;;;;;;;;;5324095;28;19964;-74
2023/07/12 05:04:17;;;;;;;;;;;;;;;;;;5324003;28;19942;-74
2023/07/12 05:06:48;;;;;;;;;;;;;;;;;;5324146;28;19911;-75
2023/07/12 05:09:20;;;;;;;;;;;;;;;;;;5324690;28;19903;-74
2023/07/12 05:11:52;;;;;;;;;;;;;;;;;;5323325;28;19908;-74
2023/07/12 05:14:23;;;;;;;;;;;;;;;;;;5324403;28;19915;-74
2023/07/12 05:16:54;;;;;;;;;;;;;;;;;;5324338;28;19912;-75
2023/07/12 05:19:25;;;;;;;;;;;;;;;;;;5323527;28;19904;-74
2023/07/12 05:21:57;;;;;;;;;;;;;;;;;;5324286;28;19903;-75
2023/07/12 05:24:28;;;;;;;;;;;;;;;;;;5324199;28;20390;-75
2023/07/12 05:26:59;;;;;;;;;;;;;;;;;;5325171;28;20014;-75
2023/07/12 05:29:30;;;;;;;;;;;;;;;;;;5328645;28;19904;-75
2023/07/12 05:32:01;;;;;;;;;;;;;;;;;;5328322;28;19915;-74
2023/07/12 05:34:32;;;;;;;;;;;;;;;;;;5327687;28;19914;-75
2023/07/12 05:37:04;;;;;;;;;;;;;;;;;;5328171;28;19998;-75
2023/07/12 05:39:35;;;;;;;;;;;;;;;;;;5327720;28;20341;-76
2023/07/12 05:42:06;;;;;;;;;;;;;;;;;;5328434;28;19927;-74
2023/07/12 05:44:37;;;;;;;;;;;;;;;;;;5328562;28;19904;-75
2023/07/12 05:47:09;;;;;;;;;;;;;;;;;;5327512;28;19911;-76
2023/07/12 05:49:40;;;;;;;;;;;;;;;;;;5327816;28;19911;-76
2023/07/12 05:52:12;;;;;;;;;;;;;;;;;;5328646;28;19908;-77
2023/07/12 05:54:43;;;;;;;;;;;;;;;;;;5327091;28;20207;-75
2023/07/12 05:57:14;;;;;;;;;;;;;;;;;;5328048;28;19908;-74
2023/07/12 05:59:45;;;;;;;;;;;;;;;;;;5327328;28;19904;-74
2023/07/12 06:02:16;;;;;;;;;;;;;;;;;;5326849;28;19923;-74
2023/07/12 06:04:47;;;;;;;;;;;;;;;;;;5327780;28;19908;-75
2023/07/12 06:07:18;;;;;;;;;;;;;;;;;;5328250;28;19903;-74
2023/07/12 06:09:49;;;;;;;;;;;;;;;;;;5326722;28;19904;-75
2023/07/12 06:12:20;;;;;;;;;;;;;;;;;;5327944;28;19904;-74
2023/07/12 06:14:52;;;;;;;;;;;;;;;;;;5326434;28;19904;-73
2023/07/12 06:17:23;;;;;;;;;;;;;;;;;;5327957;28;20308;-74
2023/07/12 06:19:54;;;;;;;;;;;;;;;;;;5327298;28;19903;-74
2023/07/12 06:22:25;;;;;;;;;;;;;;;;;;5326830;28;19911;-74
2023/07/12 06:24:56;;;;;;;;;;;;;;;;;;5327466;28;19903;-75
2023/07/12 06:27:27;;;;;;;;;;;;;;;;;;5327661;28;19911;-74
2023/07/12 06:29:59;;;;;;;;;;;;;;;;;;5326784;28;20262;-75
2023/07/12 06:32:30;;;;;;;;;;;;;;;;;;5327110;28;19951;-75
2023/07/12 06:35:01;;;;;;;;;;;;;;;;;;5327057;28;19907;-75
2023/07/12 06:37:32;;;;;;;;;;;;;;;;;;5325871;28;19954;-75
2023/07/12 06:40:05;;;;;;;;;;;;;;;;;;5327171;28;19904;-74
2023/07/12 06:42:36;;;;;;;;;;;;;;;;;;5326600;28;19904;-75
2023/07/12 06:45:07;;;;;;;;;;;;;;;;;;5327165;28;19911;-74
2023/07/12 06:47:38;;;;;;;;;;;;;;;;;;5327031;28;20377;-74
2023/07/12 06:50:09;;;;;;;;;;;;;;;;;;5326171;28;19911;-74
2023/07/12 06:52:40;;;;;;;;;;;;;;;;;;5326736;28;20310;-75
2023/07/12 06:55:11;;;;;;;;;;;;;;;;;;5327460;28;19915;-75
2023/07/12 06:57:42;;;;;;;;;;;;;;;;;;5326094;28;19912;-75
2023/07/12 07:00:14;;;;;;;;;;;;;;;;;;5327143;28;19904;-75
2023/07/12 07:02:45;;;;;;;;;;;;;;;;;;5326694;28;20348;-75
2023/07/12 07:05:16;;;;;;;;;;;;;;;;;;5326199;28;19904;-75
2023/07/12 07:07:47;;;;;;;;;;;;;;;;;;5326643;28;19907;-75
2023/07/12 07:10:19;;;;;;;;;;;;;;;;;;5326878;28;19904;-75
2023/07/12 07:12:50;;;;;;;;;;;;;;;;;;5325401;28;19903;-74
2023/07/12 07:15:21;;;;;;;;;;;;;;;;;;5326900;28;19918;-74
2023/07/12 07:17:53;;;;;;;;;;;;;;;;;;5325399;28;19910;-74
2023/07/12 07:20:24;;;;;;;;;;;;;;;;;;5326493;28;19907;-75
2023/07/12 07:22:55;;;;;;;;;;;;;;;;;;5326383;28;19908;-74
2023/07/12 07:25:26;;;;;;;;;;;;;;;;;;5325503;28;20336;-74
2023/07/12 07:27:57;;;;;;;;;;;;;;;;;;5326272;28;19949;-74
2023/07/12 07:30:28;;;;;;;;;;;;;;;;;;5326121;28;20282;-74
2023/07/12 07:32:59;;;;;;;;;;;;;;;;;;5325496;28;19916;-75
2023/07/12 07:35:30;;;;;;;;;;;;;;;;;;5326052;28;20014;-74
2023/07/12 07:38:02;;;;;;;;;;;;;;;;;;5325889;28;20304;-74
2023/07/12 07:40:33;;;;;;;;;;;;;;;;;;5325218;28;19908;-74
2023/07/12 07:43:04;;;;;;;;;;;;;;;;;;5326128;28;20247;-74
2023/07/12 07:45:35;;;;;;;;;;;;;;;;;;5325928;28;20389;-74
2023/07/12 07:48:06;;;;;;;;;;;;;;;;;;5324899;28;19903;-74
2023/07/12 07:50:37;;;;;;;;;;;;;;;;;;5325179;28;20366;-74
2023/07/12 07:53:08;;;;;;;;;;;;;;;;;;5324903;28;19973;-74
2023/07/12 07:55:39;;;;;;;;;;;;;;;;;;5325473;28;19912;-74
2023/07/12 07:58:10;;;;;;;;;;;;;;;;;;5325949;28;19946;-73
2023/07/12 08:00:42;;;;;;;;;;;;;;;;;;5324280;28;19947;-74
2023/07/12 08:03:13;;;;;;;;;;;;;;;;;;5325977;28;20270;-74
2023/07/12 08:05:45;;;;;;;;;;;;;;;;;;5325265;28;19904;-73
2023/07/12 08:08:16;;;;;;;;;;;;;;;;;;5324973;28;19948;-74
2023/07/12 08:10:47;;;;;;;;;;;;;;;;;;5325034;28;19908;-74
2023/07/12 08:13:18;;;;;;;;;;;;;;;;;;5325631;28;20274;-75
2023/07/12 08:15:49;;;;;;;;;;;;;;;;;;5324376;28;20002;-74
2023/07/12 08:18:21;;;;;;;;;;;;;;;;;;5325429;28;19910;-73
2023/07/12 08:20:52;;;;;;;;;;;;;;;;;;5324740;28;19912;-72
2023/07/12 08:23:23;;;;;;;;;;;;;;;;;;5324251;28;20277;-75
2023/07/12 08:25:54;;;;;;;;;;;;;;;;;;5324991;28;19930;-76
2023/07/12 08:28:25;;;;;;;;;;;;;;;;;;5324195;28;19907;-75
2023/07/12 08:30:56;;;;;;;;;;;;;;;;;;5324463;28;19916;-75
2023/07/12 08:33:27;;;;;;;;;;;;;;;;;;5324707;28;19908;-76
2023/07/12 08:35:59;;;;;;;;;;;;;;;;;;5323763;28;20810;-76
2023/07/12 08:38:34;;;;;;;;;;;;;;;;;;5324595;28;20367;-76
2023/07/12 08:41:05;;;;;;;;;;;;;;;;;;5324511;28;19910;-76
2023/07/12 08:43:36;;;;;;;;;;;;;;;;;;5323654;28;20350;-76
2023/07/12 08:46:07;;;;;;;;;;;;;;;;;;5324524;28;19904;-75
2023/07/12 08:48:38;;;;;;;;;;;;;;;;;;5324231;28;20351;-75
2023/07/12 08:51:09;;;;;;;;;;;;;;;;;;5323282;28;19903;-75
2023/07/12 08:53:40;;;;;;;;;;;;;;;;;;5324152;28;19956;-75
2023/07/12 08:56:12;;;;;;;;;;;;;;;;;;5324550;28;20322;-75
2023/07/12 08:58:43;;;;;;;;;;;;;;;;;;5323836;28;19908;-75
2023/07/12 09:01:15;;;;;;;;;;;;;;;;;;5324225;28;19903;-75
2023/07/12 09:03:46;;;;;;;;;;;;;;;;;;5323633;28;19908;-77
2023/07/12 09:06:17;;;;;;;;;;;;;;;;;;5324479;28;19904;-77
2023/07/12 09:08:50;;;;;;;;;;;;;;;;;;5324003;28;20348;-75
2023/07/12 09:11:21;;;;;;;;;;;;;;;;;;5323808;28;19929;-77
2023/07/12 09:13:52;;;;;;;;;;;;;;;;;;5323961;28;19908;-77
2023/07/12 09:16:23;;;;;;;;;;;;;;;;;;5324101;28;19916;-76
2023/07/12 09:18:54;;;;;;;;;;;;;;;;;;5323277;28;19903;-76
2023/07/12 09:21:26;;;;;;;;;;;;;;;;;;5324253;28;20281;-76
2023/07/12 09:23:57;;;;;;;;;;;;;;;;;;5323958;28;19927;-74
2023/07/12 09:26:28;;;;;;;;;;;;;;;;;;5323236;28;19903;-74
2023/07/12 09:28:59;;;;;;;;;;;;;;;;;;5324193;28;19915;-75
2023/07/12 09:31:30;;;;;;;;;;;;;;;;;;5323120;28;19922;-75
2023/07/12 09:34:03;;;;;;;;;;;;;;;;;;5324068;28;19904;-71
2023/07/12 09:36:35;;;;;;;;;;;;;;;;;;5323872;28;19911;-74
2023/07/12 09:39:06;;;;;;;;;;;;;;;;;;5322779;28;19903;-75
2023/07/12 09:41:37;;;;;;;;;;;;;;;;;;5323452;28;19900;-75
2023/07/12 09:44:08;;;;;;;;;;;;;;;;;;5323423;28;19911;-75
2023/07/12 09:46:39;;;;;;;;;;;;;;;;;;5322362;28;19899;-75
2023/07/12 09:49:10;;;;;;;;;;;;;;;;;;5323310;28;19910;-75
2023/07/12 09:51:41;;;;;;;;;;;;;;;;;;5322338;28;20351;-75
2023/07/12 09:54:13;;;;;;;;;;;;;;;;;;5321170;28;19910;-75
2023/07/12 09:56:44;;;;;;;;;;;;;;;;;;5321279;28;19923;-75
2023/07/12 09:59:15;;;;;;;;;;;;;;;;;;5321961;28;19903;-75
2023/07/12 10:01:46;;;;;;;;;;;;;;;;;;5320798;28;19904;-75
2023/07/12 10:04:17;;;;;;;;;;;;;;;;;;5321992;28;19904;-75
2023/07/12 10:06:51;;;;;;;;;;;;;;;;;;5321082;28;19908;-75
2023/07/12 10:09:23;;;;;;;;;;;;;;;;;;5324223;28;19907;-75
2023/07/12 10:11:54;;;;;;;;;;;;;;;;;;5323665;28;19911;-75
2023/07/12 10:14:25;;;;;;;;;;;;;;;;;;5326746;28;19903;-75
2023/07/12 10:16:56;;;;;;;;;;;;;;;;;;5327704;28;19912;-75
2023/07/12 10:19:27;;;;;;;;;;;;;;;;;;5327723;28;19904;-75
2023/07/12 10:21:58;;;;;;;;;;;;;;;;;;5326677;28;20345;-74
2023/07/12 10:24:29;;;;;;;;;;;;;;;;;;5327679;28;19910;-75
2023/07/12 10:27:00;;;;;;;;;;;;;;;;;;5327658;28;20380;-74
2023/07/12 10:29:31;;;;;;;;;;;;;;;;;;5326681;28;19911;-74
2023/07/12 10:32:02;;;;;;;;;;;;;;;;;;5327139;28;19919;-74
2023/07/12 10:34:34;;;;;;;;;;;;;;;;;;5327437;28;19991;-74
2023/07/12 10:37:05;;;;;;;;;;;;;;;;;;5326163;28;20006;-75
2023/07/12 10:39:36;;;;;;;;;;;;;;;;;;5327266;28;19945;-74
2023/07/12 10:42:07;;;;;;;;;;;;;;;;;;5326334;28;19904;-74
2023/07/12 10:44:38;;;;;;;;;;;;;;;;;;5326677;28;19949;-75
2023/07/12 10:47:09;;;;;;;;;;;;;;;;;;5326431;28;19947;-75
2023/07/12 10:49:40;;;;;;;;;;;;;;;;;;5325795;28;19910;-75
2023/07/12 10:52:11;;;;;;;;;;;;;;;;;;5327156;28;19907;-75
2023/07/12 10:54:42;;;;;;;;;;;;;;;;;;5326704;28;19952;-75
2023/07/12 10:57:14;;;;;;;;;;;;;;;;;;5325819;28;19911;-75
2023/07/12 10:59:45;;;;;;;;;;;;;;;;;;5326277;28;19904;-74
2023/07/12 11:02:16;;;;;;;;;;;;;;;;;;5327080;28;19957;-74
2023/07/12 11:04:47;;;;;;;;;;;;;;;;;;5325861;28;19904;-75
2023/07/12 11:07:18;;;;;;;;;;;;;;;;;;5325626;28;19908;-74
2023/07/12 11:09:50;;;;;;;;;;;;;;;;;;5317105;28;20020;-73
2023/07/12 11:12:21;;;;;;;;;;;;;;;;;;5326048;28;20311;-73
2023/07/12 11:14:52;;;;;;;;;;;;;;;;;;5326161;28;19903;-73
2023/07/12 11:17:24;;;;;;;;;;;;;;;;;;5325477;28;19916;-73
2023/07/12 11:19:55;;;;;;;;;;;;;;;;;;5326144;28;19948;-74
2023/07/12 11:22:26;;;;;;;;;;;;;;;;;;5326203;28;20317;-73
2023/07/12 11:24:57;;;;;;;;;;;;;;;;;;5323567;28;19904;-73
2023/07/12 11:27:28;;;;;;;;;;;;;;;;;;5326160;28;20281;-73
2023/07/12 11:29:59;;;;;;;;;;;;;;;;;;5325624;28;19908;-74
2023/07/12 11:32:30;;;;;;;;;;;;;;;;;;5324973;28;19915;-74
2023/07/12 11:35:01;;;;;;;;;;;;;;;;;;5325737;28;19903;-73
2023/07/12 11:37:32;;;;;;;;;;;;;;;;;;5325391;28;19923;-71
2023/07/12 11:40:03;;;;;;;;;;;;;;;;;;5324591;28;19911;-73
2023/07/12 11:42:35;;;;;;;;;;;;;;;;;;5325758;28;19904;-74
2023/07/12 11:45:06;;;;;;;;;;;;;;;;;;5310156;28;20041;-74
2023/07/12 11:47:37;;;;;;;;;;;;;;;;;;5302271;28;20343;-72
2023/07/12 11:50:10;;;;;;;;;;;;;;;;;;5302814;28;20026;-73
2023/07/12 11:52:41;;;;;;;;;;;;;;;;;;5302688;28;19908;-73
2023/07/12 11:55:13;;;;;;;;;;;;;;;;;;5303409;28;19911;-74
2023/07/12 11:57:45;;;;;;;;;;;;;;;;;;5302511;28;19908;-75
2023/07/12 12:00:16;;;;;;;;;;;;;;;;;;5302424;28;19912;-73
2023/07/12 12:02:47;;;;;;;;;;;;;;;;;;5302903;28;19911;-73
2023/07/12 12:05:24;;;;;;;;;;;;;;;;;;5303293;28;19904;-73
2023/07/12 12:07:56;;;;;;;;;;;;;;;;;;5302302;28;19908;-74
2023/07/12 12:10:27;;;;;;;;;;;;;;;;;;5303536;28;19912;-74
2023/07/12 12:12:58;;;;;;;;;;;;;;;;;;5301064;28;20008;-73
2023/07/12 12:15:32;;;;;;;;;;;;;;;;;;5301404;28;20479;-73
2023/07/12 12:18:03;;;;;;;;;;;;;;;;;;5303032;28;20000;-74
2023/07/12 12:20:35;;;;;;;;;;;;;;;;;;5302297;28;19949;-73
2023/07/12 12:23:06;;;;;;;;;;;;;;;;;;5303200;28;19996;-72
2023/07/12 12:25:37;;;;;;;;;;;;;;;;;;5302800;28;19947;-73
2023/07/12 12:28:08;;;;;;;;;;;;;;;;;;5305350;28;19908;-73
2023/07/12 12:30:39;;;;;;;;;;;;;;;;;;5311661;28;19916;-73
2023/07/12 12:33:11;;;;;;;;;;;;;;;;;;5302086;28;20383;-73
2023/07/12 12:35:42;;;;;;;;;;;;;;;;;;5300765;28;19919;-74
2023/07/12 12:38:13;;;;;;;;;;;;;;;;;;5302534;28;19911;-74
2023/07/12 12:40:44;;;;;;;;;;;;;;;;;;5302415;28;19985;-73
2023/07/12 12:43:15;;;;;;;;;;;;;;;;;;5302501;28;20358;-73
2023/07/12 12:45:48;;;;;;;;;;;;;;;;;;5306355;28;19907;-72
2023/07/12 12:48:19;;;;;;;;;;;;;;;;;;5323110;28;20365;-75
2023/07/12 12:50:54;;;;;;;;;;;;;;;;;;5323487;28;19914;-76
2023/07/12 12:53:25;;;;;;;;;;;;;;;;;;5322973;28;19907;-76
2023/07/12 12:55:56;;;;;;;;;;;;;;;;;;5322493;28;19934;-75
2023/07/12 12:58:27;;;;;;;;;;;;;;;;;;5308330;28;20002;-76
2023/07/12 13:00:58;;;;;;;;;;;;;;;;;;5300714;28;19908;-76
2023/07/12 13:03:29;;;;;;;;;;;;;;;;;;5301485;28;19907;-77
2023/07/12 13:06:01;;;;;;;;;;;;;;;;;;5300368;28;19926;-75
2023/07/12 13:08:32;;;;;;;;;;;;;;;;;;5300896;28;19947;-76
2023/07/12 13:11:04;;;;;;;;;;;;;;;;;;5301710;28;19939;-74
2023/07/12 13:13:35;;;;;;;;;;;;;;;;;;5302564;28;19930;-74
2023/07/12 13:16:06;;;;;;;;;;;;;;;;;;5283847;28;20362;-75
2023/07/12 13:18:37;;;;;;;;;;;;;;;;;;5301294;28;20278;-72
2023/07/12 13:21:09;;;;;;;;;;;;;;;;;;5301830;28;19904;-77
2023/07/12 13:23:40;;;;;;;;;;;;;;;;;;5302080;28;19904;-76
2023/07/12 13:26:11;;;;;;;;;;;;;;;;;;5303484;28;19904;-76
2023/07/12 13:28:42;;;;;;;;;;;;;;;;;;5302752;28;19931;-76
2023/07/12 13:31:15;;;;;;;;;;;;;;;;;;5302420;28;19941;-75
2023/07/12 13:33:46;;;;;;;;;;;;;;;;;;5302503;28;19911;-76
2023/07/12 13:36:18;;;;;;;;;;;;;;;;;;5302950;28;20367;-76
2023/07/12 13:38:49;;;;;;;;;;;;;;;;;;5302007;28;19911;-76
2023/07/12 13:41:20;;;;;;;;;;;;;;;;;;5303294;28;19907;-76
2023/07/12 13:43:53;;;;;;;;;;;;;;;;;;5302736;28;19904;-76
2023/07/12 13:46:24;;;;;;;;;;;;;;;;;;5302159;28;19904;-76
2023/07/12 13:48:55;;;;;;;;;;;;;;;;;;5305816;28;19910;-76
2023/07/12 13:51:26;;;;;;;;;;;;;;;;;;5307158;28;19977;-76
2023/07/12 13:53:58;;;;;;;;;;;;;;;;;;5306106;28;19906;-76
2023/07/12 13:56:29;;;;;;;;;;;;;;;;;;5306945;28;19916;-76
2023/07/12 13:59:00;;;;;;;;;;;;;;;;;;5306402;28;19934;-76
2023/07/12 14:01:32;;;;;;;;;;;;;;;;;;5306886;28;19908;-76
2023/07/12 14:04:03;;;;;;;;;;;;;;;;;;5306862;28;19949;-76
2023/07/12 14:06:34;;;;;;;;;;;;;;;;;;5306151;28;20318;-75
2023/07/12 14:09:06;;;;;;;;;;;;;;;;;;5306590;28;19904;-76
2023/07/12 14:11:37;;;;;;;;;;;;;;;;;;5306394;28;20376;-76
2023/07/12 14:14:08;;;;;;;;;;;;;;;;;;5305921;28;20321;-75
2023/07/12 14:16:39;;;;;;;;;;;;;;;;;;5306525;28;19912;-76
2023/07/12 14:19:10;;;;;;;;;;;;;;;;;;5306748;28;19908;-76
2023/07/12 14:21:41;;;;;;;;;;;;;;;;;;5305495;28;19904;-76
2023/07/12 14:24:12;;;;;;;;;;;;;;;;;;5306729;28;19912;-76
2023/07/12 14:26:43;;;;;;;;;;;;;;;;;;5306133;28;19915;-76
2023/07/12 14:29:14;;;;;;;;;;;;;;;;;;5306002;28;19904;-76
2023/07/12 14:31:46;;;;;;;;;;;;;;;;;;5305820;28;19923;-76
2023/07/12 14:34:18;;;;;;;;;;;;;;;;;;5305711;28;19958;-76
2023/07/12 14:36:49;;;;;;;;;;;;;;;;;;5305680;28;20006;-75
2023/07/12 14:39:20;;;;;;;;;;;;;;;;;;5306501;28;20406;-76
2023/07/12 14:41:51;;;;;;;;;;;;;;;;;;5304892;28;19900;-76
2023/07/12 14:44:24;;;;;;;;;;;;;;;;;;5306264;28;20397;-75
2023/07/12 14:46:55;;;;;;;;;;;;;;;;;;5305866;28;19907;-76
2023/07/12 14:49:26;;;;;;;;;;;;;;;;;;5305116;28;19904;-75
2023/07/12 14:51:58;;;;;;;;;;;;;;;;;;5306066;28;20297;-76
2023/07/12 14:54:30;;;;;;;;;;;;;;;;;;5305816;28;19904;-76
2023/07/12 14:57:01;;;;;;;;;;;;;;;;;;5305024;28;20015;-76
2023/07/12 14:59:32;;;;;;;;;;;;;;;;;;5305171;28;19914;-77
2023/07/12 15:02:03;;;;;;;;;;;;;;;;;;5304905;28;20385;-77
2023/07/12 15:04:34;;;;;;;;;;;;;;;;;;5305557;28;19911;-76
2023/07/12 15:07:05;;;;;;;;;;;;;;;;;;5305324;28;19907;-77
2023/07/12 15:09:36;;;;;;;;;;;;;;;;;;5304774;28;19965;-77
2023/07/12 15:12:07;;;;;;;;;;;;;;;;;;5305262;28;20010;-77
2023/07/12 15:14:39;;;;;;;;;;;;;;;;;;5305367;28;20314;-76
2023/07/12 15:17:10;;;;;;;;;;;;;;;;;;5304717;28;19912;-77
2023/07/12 15:19:41;;;;;;;;;;;;;;;;;;5304613;28;19911;-77
2023/07/12 15:22:12;;;;;;;;;;;;;;;;;;5305556;28;20367;-77
2023/07/12 15:24:43;;;;;;;;;;;;;;;;;;5304124;28;19960;-76
2023/07/12 15:27:15;;;;;;;;;;;;;;;;;;5304921;28;19931;-76
2023/07/12 15:29:46;;;;;;;;;;;;;;;;;;5304746;28;20359;-75
2023/07/12 15:32:17;;;;;;;;;;;;;;;;;;5307968;28;19915;-75
2023/07/12 15:34:48;;;;;;;;;;;;;;;;;;5306184;28;19930;-79
2023/07/12 15:37:19;;;;;;;;;;;;;;;;;;5303348;28;20007;-78
2023/07/12 15:39:51;;;;;;;;;;;;;;;;;;5303773;28;19995;-79
2023/07/12 15:42:22;;;;;;;;;;;;;;;;;;5303944;28;20034;-79
2023/07/12 15:44:54;;;;;;;;;;;;;;;;;;5302584;28;19969;-78
2023/07/12 15:47:25;;;;;;;;;;;;;;;;;;5303403;28;19940;-79
2023/07/12 15:49:56;;;;;;;;;;;;;;;;;;5303686;28;19947;-78
2023/07/12 15:52:29;;;;;;;;;;;;;;;;;;5302724;28;20367;-78
2023/07/12 15:55:00;;;;;;;;;;;;;;;;;;5303050;28;19908;-78
2023/07/12 15:57:34;;;;;;;;;;;;;;;;;;5303481;28;20227;-78
2023/07/12 16:00:05;;;;;;;;;;;;;;;;;;5331951;27;19904;-78
2023/07/12 16:02:37;;;;;;;;;;;;;;;;;;5345708;27;20289;-78
2023/07/12 16:05:08;;;;;;;;;;;;;;;;;;5346036;27;20025;-78
2023/07/12 16:07:39;;;;;;;;;;;;;;;;;;5345033;27;19995;-78
2023/07/12 16:10:12;;;;;;;;;;;;;;;;;;5345262;27;19906;-78
2023/07/12 16:12:43;;;;;;;;;;;;;;;;;;5344857;27;20649;-78
2023/07/12 16:15:14;;;;;;;;;;;;;;;;;;5346458;27;19903;-78
2023/07/12 16:17:45;;;;;;;;;;;;;;;;;;5346070;27;19935;-78
2023/07/12 16:20:17;;;;;;;;;;;;;;;;;;5345658;27;19956;-78
2023/07/12 16:22:48;;;;;;;;;;;;;;;;;;5345348;27;19953;-79
2023/07/12 16:25:19;;;;;;;;;;;;;;;;;;5346344;27;19910;-79
2023/07/12 16:27:50;;;;;;;;;;;;;;;;;;5344820;27;19916;-79
2023/07/12 16:30:22;;;;;;;;;;;;;;;;;;5346160;27;20311;-79
2023/07/12 16:32:54;;;;;;;;;;;;;;;;;;5345079;27;19919;-78
2023/07/12 16:35:25;;;;;;;;;;;;;;;;;;5344720;27;19972;-79
2023/07/12 16:37:57;;;;;;;;;;;;;;;;;;5345853;27;19907;-79
2023/07/12 16:40:28;;;;;;;;;;;;;;;;;;5344968;27;19899;-79
2023/07/12 16:42:59;;;;;;;;;;;;;;;;;;5345296;27;20071;-78
2023/07/12 16:45:30;;;;;;;;;;;;;;;;;;5345527;27;19900;-79
2023/07/12 16:48:03;;;;;;;;;;;;;;;;;;5344512;27;19915;-79
2023/07/12 16:50:34;;;;;;;;;;;;;;;;;;5345593;27;19936;-78
2023/07/12 16:53:05;;;;;;;;;;;;;;;;;;5345560;27;19907;-78
2023/07/12 16:55:40;;;;;;;;;;;;;;;;;;5320976;27;20368;-78
2023/07/12 16:58:11;;;;;;;;;;;;;;;;;;5307431;28;19954;-78
2023/07/12 17:00:43;;;;;;;;;;;;;;;;;;5302229;28;20325;-78
2023/07/12 17:03:14;;;;;;;;;;;;;;;;;;5300999;28;19908;-78
2023/07/12 17:05:46;;;;;;;;;;;;;;;;;;5301506;28;19932;-78
2023/07/12 17:08:17;;;;;;;;;;;;;;;;;;5302259;28;20000;-78
2023/07/12 17:10:49;;;;;;;;;;;;;;;;;;5301367;28;20010;-77
2023/07/12 17:13:20;;;;;;;;;;;;;;;;;;5301621;28;19975;-73